Flight Track Log - Related Links

Times and Time Zones

All times are in EDT time to prevent confusion due to time zone crossing. See the UPS1301 flight status page for this flight to view local times or setup timezone preferences in your user account.

Time Position Orientation Groundspeed Altitude Reporting Facility
EDT Latitude Longitude Course Direction KTS MPH feet Rate Location/Type
Thu 10:55:26 PM 33.6500 -84.4000 90° East 142 163 2,700  Level Atlanta TRACON
Thu 10:56:32 PM 33.6500 -84.3333 90° East 198 228 4,700 1,950 Climbing Atlanta TRACON
Thu 10:57:26 PM 33.6833 -84.2667 59° Northeast 272 313 6,600 2,311 Climbing Atlanta TRACON
Thu 11:03:04 PM 34.2096 -84.5506 334° Northwest 409 471 19,800 2,305 Climbing FlightAware ADS-B (KDZJ)
Thu 11:03:46 PM 34.2832 -84.5910 340° North 412 474 21,200 1,829 Climbing FlightAware ADS-B (KDZJ)
Thu 11:04:26 PM 34.3596 -84.6129 353° North 434 499 22,300 1,692 Climbing FlightAware ADS-B (KDZJ)
Thu 11:05:04 PM 34.4388 -84.6212 356° North 439 505 23,400 1,630 Climbing FlightAware ADS-B (KDZJ)
Thu 11:05:47 PM 34.5276 -84.6295 356° North 449 517 24,500 1,556 Climbing FlightAware ADS-B (KDZJ)
Thu 11:06:25 PM 34.6078 -84.6373 355° North 456 525 25,500 1,575 Climbing FlightAware ADS-B (KDZJ)
Thu 11:07:07 PM 34.6993 -84.6462 355° North 470 541 26,600 1,926 Climbing FlightAware ADS-B (KDZJ)
Thu 11:07:46 PM 34.7842 -84.6545 355° North 455 524 28,100 2,100 Climbing FlightAware ADS-B (KDZJ)
Thu 11:08:27 PM 34.8705 -84.6629 355° North 451 519 29,400 1,425 Climbing FlightAware ADS-B (KDZJ)
Thu 11:09:06 PM 34.9546 -84.6712 355° North 455 524 30,000 450 Climbing FlightAware ADS-B (KDZJ)
Thu 11:09:47 PM 35.0415 -84.6798 355° North 456 525 30,000  Level FlightAware ADS-B (KDZJ)
Thu 11:15:23 PM 35.7215 -84.7489 355° North 456 525 30,000  Level FlightAware ADS-B (KMDQ)
Thu 11:17:18 PM 35.9590 -84.7743 355° North 456 525 30,000 -88 Level FlightAware ADS-B (KMDQ)
Thu 11:22:10 PM 36.5477 -84.8367 355° North 454 522 29,400 -234 Descending FlightAware ADS-B (KMDQ)
Thu 11:22:52 PM 36.6431 -84.8467 355° North 452 520 28,700 -1,515 Descending Indianapolis Center
Thu 11:23:53 PM 36.7678 -84.8594 355° North 452 520 26,800 -1,951 Descending Indianapolis Center
Thu 11:24:55 PM 36.8903 -84.8728 355° North 449 517 24,700 -2,164 Descending Indianapolis Center
Thu 11:25:55 PM 37.0217 -84.8872 355° North 434 499 22,400 -2,115 Descending Indianapolis Center
Thu 11:26:57 PM 37.1447 -84.9003 355° North 435 501 20,400 -1,561 Descending Indianapolis Center
Thu 11:27:58 PM 37.2689 -84.9133 355° North 443 510 19,200 -2,033 Descending Indianapolis Center
Thu 11:28:58 PM 37.3892 -84.9267 355° North 440 506 16,300 -3,295 Descending Indianapolis Center
Thu 11:30:00 PM 37.5067 -84.9375 356° North 427 491 12,500 -3,049 Descending Indianapolis Center
Thu 11:31:00 PM 37.6114 -84.9497 355° North 388 447 10,100 -1,300 Descending Indianapolis Center
Thu 11:32:00 PM 37.6856 -84.9953 334° Northwest 307 353 9,900 -878 Descending Indianapolis Center
Thu 11:33:03 PM 37.7364 -85.0672 312° West 277 319 8,300 -919 Descending Indianapolis Center
Thu 11:34:04 PM 37.7886 -85.1383 313° West 277 319 8,000 -645 Descending Indianapolis Center
Thu 11:35:04 PM 37.8256 -85.2244 299° West 277 319 7,000 -1,033 Descending Indianapolis Center
Thu 11:36:06 PM 37.8514 -85.3158 290° West 277 319 5,900 -1,171 Descending Indianapolis Center
Thu 11:37:07 PM 37.8772 -85.4053 290° West 276 318 4,600 -1,250 Descending Indianapolis Center
Thu 11:38:06 PM 37.9033 -85.4917 291° West 269 310 3,400 -787 Descending Indianapolis Center
Thu 11:39:09 PM 37.9253 -85.5728 289° West 257 296 3,000 -195 Descending Indianapolis Center
Thu 11:40:09 PM 37.9689 -85.6450 307° West 228 262 3,000  Level Indianapolis Center
Thu 11:41:11 PM 38.0203 -85.6869 327° Northwest 222 255 3,000 -293 Level Indianapolis Center
Thu 11:42:12 PM 38.0628 -85.7081 339° North 189 217 2,400 -397 Descending Indianapolis Center
Thu 11:43:12 PM 38.1058 -85.7225 345° North 184 212 2,200 -200 Descending Indianapolis Center
Thu 11:45:00 PM 38.1741 -85.7365 211° Southwest  Level Estimated
Thu 11:52:00 PM 38.1741 -85.7365 208° Southwest  Level Estimated
Thu 11:53:00 PM 38.1741 -85.7365 208° Southwest  Level Estimated
Thu 11:54:00 PM 38.1741 -85.7365 208° Southwest  Level Estimated
Thu 11:55:00 PM 38.1741 -85.7365 208° Southwest  Level Estimated
Thu 11:56:00 PM 38.1741 -85.7365 208° Southwest  Level Estimated
Thu 11:57:00 PM 38.1741 -85.7365 208° Southwest  Level Estimated
Thu 11:58:00 PM 38.1741 -85.7365 208° Southwest  Level Estimated
Thu 11:59:00 PM 38.1741 -85.7365 208° Southwest  Level Estimated
Fri 12:00:00 AM 38.1741 -85.7365 208° Southwest  Level Estimated
Fri 12:01:00 AM 38.1741 -85.7365 208° Southwest  Level Estimated

Login

Don't have an account? Register now (free) for customized features, flight alerts, and more!